sensor_id;sensor_type;location;lat;lon;timestamp;P1;durP1;ratioP1;P2;durP2;ratioP2
6414;SDS011;3240;48.790;9.210;2022-07-24T00:00:34;13.10;;;11.63;;
6414;SDS011;3240;48.790;9.210;2022-07-24T00:03:02;15.93;;;12.10;;
6414;SDS011;3240;48.790;9.210;2022-07-24T00:05:30;14.70;;;11.73;;
6414;SDS011;3240;48.790;9.210;2022-07-24T00:07:59;16.97;;;11.97;;
6414;SDS011;3240;48.790;9.210;2022-07-24T00:10:27;14.13;;;12.07;;
6414;SDS011;3240;48.790;9.210;2022-07-24T00:12:55;18.43;;;13.00;;
6414;SDS011;3240;48.790;9.210;2022-07-24T00:15:24;16.83;;;12.17;;
6414;SDS011;3240;48.790;9.210;2022-07-24T00:17:52;14.57;;;11.33;;
6414;SDS011;3240;48.790;9.210;2022-07-24T00:20:20;15.87;;;12.03;;
6414;SDS011;3240;48.790;9.210;2022-07-24T00:22:49;13.80;;;11.20;;
6414;SDS011;3240;48.790;9.210;2022-07-24T00:25:17;14.43;;;12.10;;
6414;SDS011;3240;48.790;9.210;2022-07-24T00:27:45;16.20;;;11.97;;
6414;SDS011;3240;48.790;9.210;2022-07-24T00:30:14;14.33;;;11.73;;
6414;SDS011;3240;48.790;9.210;2022-07-24T00:32:42;13.53;;;10.40;;
6414;SDS011;3240;48.790;9.210;2022-07-24T00:35:10;17.77;;;11.23;;
6414;SDS011;3240;48.790;9.210;2022-07-24T00:37:39;15.90;;;11.23;;
6414;SDS011;3240;48.790;9.210;2022-07-24T00:40:07;15.87;;;11.47;;
6414;SDS011;3240;48.790;9.210;2022-07-24T00:42:36;15.83;;;11.33;;
6414;SDS011;3240;48.790;9.210;2022-07-24T00:45:04;13.37;;;10.83;;
6414;SDS011;3240;48.790;9.210;2022-07-24T00:47:33;21.40;;;11.50;;
6414;SDS011;3240;48.790;9.210;2022-07-24T00:50:01;14.90;;;12.07;;
6414;SDS011;3240;48.790;9.210;2022-07-24T00:52:30;17.13;;;11.50;;
6414;SDS011;3240;48.790;9.210;2022-07-24T00:54:58;13.07;;;10.13;;
6414;SDS011;3240;48.790;9.210;2022-07-24T00:57:26;14.77;;;12.27;;
6414;SDS011;3240;48.790;9.210;2022-07-24T00:59:54;17.70;;;11.80;;
6414;SDS011;3240;48.790;9.210;2022-07-24T01:02:23;13.67;;;11.53;;
6414;SDS011;3240;48.790;9.210;2022-07-24T01:04:51;13.53;;;11.03;;
6414;SDS011;3240;48.790;9.210;2022-07-24T01:07:19;14.77;;;11.20;;
6414;SDS011;3240;48.790;9.210;2022-07-24T01:09:48;15.70;;;11.37;;
6414;SDS011;3240;48.790;9.210;2022-07-24T01:12:16;15.20;;;11.30;;
6414;SDS011;3240;48.790;9.210;2022-07-24T01:14:44;16.27;;;11.90;;
6414;SDS011;3240;48.790;9.210;2022-07-24T01:17:13;14.53;;;12.00;;
6414;SDS011;3240;48.790;9.210;2022-07-24T01:19:41;15.40;;;12.20;;
6414;SDS011;3240;48.790;9.210;2022-07-24T01:22:09;15.37;;;12.47;;
6414;SDS011;3240;48.790;9.210;2022-07-24T01:24:38;15.37;;;11.27;;
6414;SDS011;3240;48.790;9.210;2022-07-24T01:27:06;18.27;;;12.30;;
6414;SDS011;3240;48.790;9.210;2022-07-24T01:29:34;17.00;;;12.40;;
6414;SDS011;3240;48.790;9.210;2022-07-24T01:32:03;14.23;;;11.77;;
6414;SDS011;3240;48.790;9.210;2022-07-24T01:34:31;16.27;;;13.17;;
6414;SDS011;3240;48.790;9.210;2022-07-24T01:36:59;16.20;;;12.80;;
6414;SDS011;3240;48.790;9.210;2022-07-24T01:39:28;18.00;;;12.80;;
6414;SDS011;3240;48.790;9.210;2022-07-24T01:41:56;16.07;;;12.77;;
6414;SDS011;3240;48.790;9.210;2022-07-24T01:44:24;16.30;;;13.20;;
6414;SDS011;3240;48.790;9.210;2022-07-24T01:46:53;18.80;;;12.60;;
6414;SDS011;3240;48.790;9.210;2022-07-24T01:49:21;18.40;;;12.33;;
6414;SDS011;3240;48.790;9.210;2022-07-24T01:51:49;16.67;;;12.87;;
6414;SDS011;3240;48.790;9.210;2022-07-24T01:54:18;21.60;;;13.80;;
6414;SDS011;3240;48.790;9.210;2022-07-24T01:56:46;18.43;;;14.17;;
6414;SDS011;3240;48.790;9.210;2022-07-24T01:59:14;17.43;;;13.30;;
6414;SDS011;3240;48.790;9.210;2022-07-24T02:01:43;20.30;;;14.97;;
6414;SDS011;3240;48.790;9.210;2022-07-24T02:04:11;21.53;;;13.43;;
6414;SDS011;3240;48.790;9.210;2022-07-24T02:06:39;19.57;;;14.20;;
6414;SDS011;3240;48.790;9.210;2022-07-24T02:09:08;14.07;;;12.60;;
6414;SDS011;3240;48.790;9.210;2022-07-24T02:11:36;16.70;;;13.53;;
6414;SDS011;3240;48.790;9.210;2022-07-24T02:14:04;15.33;;;13.27;;
6414;SDS011;3240;48.790;9.210;2022-07-24T02:16:33;17.13;;;13.83;;
6414;SDS011;3240;48.790;9.210;2022-07-24T02:19:01;20.47;;;14.97;;
6414;SDS011;3240;48.790;9.210;2022-07-24T02:21:29;19.20;;;14.23;;
6414;SDS011;3240;48.790;9.210;2022-07-24T02:23:58;18.80;;;14.23;;
6414;SDS011;3240;48.790;9.210;2022-07-24T02:26:26;21.80;;;13.87;;
6414;SDS011;3240;48.790;9.210;2022-07-24T02:28:55;17.33;;;14.37;;
6414;SDS011;3240;48.790;9.210;2022-07-24T02:31:23;21.03;;;14.60;;
6414;SDS011;3240;48.790;9.210;2022-07-24T02:33:51;18.77;;;14.60;;
6414;SDS011;3240;48.790;9.210;2022-07-24T02:36:19;19.23;;;14.67;;
6414;SDS011;3240;48.790;9.210;2022-07-24T02:38:48;18.10;;;14.00;;
6414;SDS011;3240;48.790;9.210;2022-07-24T02:41:16;22.23;;;15.20;;
6414;SDS011;3240;48.790;9.210;2022-07-24T02:43:44;17.43;;;14.30;;
6414;SDS011;3240;48.790;9.210;2022-07-24T02:46:13;19.00;;;14.10;;
6414;SDS011;3240;48.790;9.210;2022-07-24T02:48:41;17.43;;;13.37;;
6414;SDS011;3240;48.790;9.210;2022-07-24T02:51:10;17.80;;;13.63;;
6414;SDS011;3240;48.790;9.210;2022-07-24T02:53:38;18.93;;;13.10;;
6414;SDS011;3240;48.790;9.210;2022-07-24T02:56:06;16.95;;;13.32;;
6414;SDS011;3240;48.790;9.210;2022-07-24T02:58:35;17.30;;;13.00;;
6414;SDS011;3240;48.790;9.210;2022-07-24T03:01:03;18.70;;;13.53;;
6414;SDS011;3240;48.790;9.210;2022-07-24T03:03:31;18.77;;;13.83;;
6414;SDS011;3240;48.790;9.210;2022-07-24T03:06:00;17.20;;;13.97;;
6414;SDS011;3240;48.790;9.210;2022-07-24T03:08:28;17.67;;;13.43;;
6414;SDS011;3240;48.790;9.210;2022-07-24T03:10:56;17.93;;;13.40;;
6414;SDS011;3240;48.790;9.210;2022-07-24T03:13:25;15.53;;;12.80;;
6414;SDS011;3240;48.790;9.210;2022-07-24T03:15:53;18.40;;;13.63;;
6414;SDS011;3240;48.790;9.210;2022-07-24T03:18:21;21.33;;;13.63;;
6414;SDS011;3240;48.790;9.210;2022-07-24T03:20:50;16.40;;;13.80;;
6414;SDS011;3240;48.790;9.210;2022-07-24T03:23:18;18.97;;;13.73;;
6414;SDS011;3240;48.790;9.210;2022-07-24T03:25:46;17.70;;;14.48;;
6414;SDS011;3240;48.790;9.210;2022-07-24T03:28:15;19.70;;;15.30;;
6414;SDS011;3240;48.790;9.210;2022-07-24T03:30:43;18.13;;;14.57;;
6414;SDS011;3240;48.790;9.210;2022-07-24T03:33:11;21.87;;;14.87;;
6414;SDS011;3240;48.790;9.210;2022-07-24T03:35:40;17.20;;;14.73;;
6414;SDS011;3240;48.790;9.210;2022-07-24T03:38:08;19.17;;;14.87;;
6414;SDS011;3240;48.790;9.210;2022-07-24T03:40:36;18.60;;;14.63;;
6414;SDS011;3240;48.790;9.210;2022-07-24T03:43:05;15.07;;;12.70;;
6414;SDS011;3240;48.790;9.210;2022-07-24T03:45:33;16.67;;;12.80;;
6414;SDS011;3240;48.790;9.210;2022-07-24T03:48:01;16.10;;;12.70;;
6414;SDS011;3240;48.790;9.210;2022-07-24T03:50:30;16.37;;;12.07;;
6414;SDS011;3240;48.790;9.210;2022-07-24T03:52:58;17.03;;;12.30;;
6414;SDS011;3240;48.790;9.210;2022-07-24T03:55:26;15.53;;;13.10;;
6414;SDS011;3240;48.790;9.210;2022-07-24T03:57:55;15.90;;;13.30;;
6414;SDS011;3240;48.790;9.210;2022-07-24T04:00:23;16.27;;;13.00;;
6414;SDS011;3240;48.790;9.210;2022-07-24T04:02:51;17.33;;;13.27;;
6414;SDS011;3240;48.790;9.210;2022-07-24T04:05:20;19.93;;;14.07;;
6414;SDS011;3240;48.790;9.210;2022-07-24T04:07:48;17.73;;;13.23;;
6414;SDS011;3240;48.790;9.210;2022-07-24T04:10:16;22.33;;;13.33;;
6414;SDS011;3240;48.790;9.210;2022-07-24T04:12:45;15.20;;;12.43;;
6414;SDS011;3240;48.790;9.210;2022-07-24T04:15:13;15.60;;;12.70;;
6414;SDS011;3240;48.790;9.210;2022-07-24T04:17:41;20.00;;;14.53;;
6414;SDS011;3240;48.790;9.210;2022-07-24T04:20:10;16.50;;;13.50;;
6414;SDS011;3240;48.790;9.210;2022-07-24T04:22:38;15.70;;;13.47;;
6414;SDS011;3240;48.790;9.210;2022-07-24T04:25:06;15.47;;;13.40;;
6414;SDS011;3240;48.790;9.210;2022-07-24T04:27:35;15.20;;;13.10;;
6414;SDS011;3240;48.790;9.210;2022-07-24T04:30:03;18.20;;;14.70;;
6414;SDS011;3240;48.790;9.210;2022-07-24T04:32:32;20.00;;;13.60;;
6414;SDS011;3240;48.790;9.210;2022-07-24T04:35:00;18.83;;;14.40;;
6414;SDS011;3240;48.790;9.210;2022-07-24T04:37:28;17.52;;;15.00;;
6414;SDS011;3240;48.790;9.210;2022-07-24T04:39:57;16.50;;;13.37;;
6414;SDS011;3240;48.790;9.210;2022-07-24T04:42:25;16.23;;;12.60;;
6414;SDS011;3240;48.790;9.210;2022-07-24T04:44:53;20.00;;;14.87;;
6414;SDS011;3240;48.790;9.210;2022-07-24T04:47:22;18.03;;;12.47;;
6414;SDS011;3240;48.790;9.210;2022-07-24T04:49:50;17.57;;;12.80;;
6414;SDS011;3240;48.790;9.210;2022-07-24T04:52:18;14.03;;;12.53;;
6414;SDS011;3240;48.790;9.210;2022-07-24T04:54:47;15.27;;;13.23;;
6414;SDS011;3240;48.790;9.210;2022-07-24T04:57:15;15.90;;;13.10;;
6414;SDS011;3240;48.790;9.210;2022-07-24T04:59:43;16.50;;;12.97;;
6414;SDS011;3240;48.790;9.210;2022-07-24T05:02:12;14.97;;;12.30;;
6414;SDS011;3240;48.790;9.210;2022-07-24T05:04:40;15.87;;;11.83;;
6414;SDS011;3240;48.790;9.210;2022-07-24T05:07:08;17.20;;;11.53;;
6414;SDS011;3240;48.790;9.210;2022-07-24T05:09:37;19.03;;;13.03;;
6414;SDS011;3240;48.790;9.210;2022-07-24T05:12:05;17.13;;;13.03;;
6414;SDS011;3240;48.790;9.210;2022-07-24T05:14:34;19.20;;;13.50;;
6414;SDS011;3240;48.790;9.210;2022-07-24T05:17:02;16.17;;;12.73;;
6414;SDS011;3240;48.790;9.210;2022-07-24T05:19:30;16.00;;;12.50;;
6414;SDS011;3240;48.790;9.210;2022-07-24T05:21:59;18.23;;;13.93;;
6414;SDS011;3240;48.790;9.210;2022-07-24T05:24:27;22.03;;;13.00;;
6414;SDS011;3240;48.790;9.210;2022-07-24T05:26:55;14.77;;;12.63;;
6414;SDS011;3240;48.790;9.210;2022-07-24T05:29:24;18.73;;;13.90;;
6414;SDS011;3240;48.790;9.210;2022-07-24T05:31:52;15.77;;;12.80;;
6414;SDS011;3240;48.790;9.210;2022-07-24T05:34:21;16.20;;;13.00;;
6414;SDS011;3240;48.790;9.210;2022-07-24T05:36:49;16.77;;;13.40;;
6414;SDS011;3240;48.790;9.210;2022-07-24T05:39:17;16.03;;;13.10;;
6414;SDS011;3240;48.790;9.210;2022-07-24T05:41:45;14.43;;;12.70;;
6414;SDS011;3240;48.790;9.210;2022-07-24T05:44:14;18.00;;;12.70;;
6414;SDS011;3240;48.790;9.210;2022-07-24T05:46:42;16.30;;;13.10;;
6414;SDS011;3240;48.790;9.210;2022-07-24T05:49:10;18.40;;;12.63;;
6414;SDS011;3240;48.790;9.210;2022-07-24T05:51:39;15.63;;;12.40;;
6414;SDS011;3240;48.790;9.210;2022-07-24T05:54:07;19.63;;;12.53;;
6414;SDS011;3240;48.790;9.210;2022-07-24T05:56:35;18.20;;;12.43;;
6414;SDS011;3240;48.790;9.210;2022-07-24T05:59:04;16.87;;;13.20;;
6414;SDS011;3240;48.790;9.210;2022-07-24T06:01:32;17.47;;;13.97;;
6414;SDS011;3240;48.790;9.210;2022-07-24T06:04:00;16.70;;;13.17;;
6414;SDS011;3240;48.790;9.210;2022-07-24T06:06:29;14.97;;;12.10;;
6414;SDS011;3240;48.790;9.210;2022-07-24T06:08:57;14.47;;;11.73;;
6414;SDS011;3240;48.790;9.210;2022-07-24T06:11:25;13.50;;;11.57;;
6414;SDS011;3240;48.790;9.210;2022-07-24T06:13:54;15.30;;;12.67;;
6414;SDS011;3240;48.790;9.210;2022-07-24T06:16:22;16.00;;;12.50;;
6414;SDS011;3240;48.790;9.210;2022-07-24T06:18:50;13.40;;;11.90;;
6414;SDS011;3240;48.790;9.210;2022-07-24T06:21:19;14.07;;;12.40;;
6414;SDS011;3240;48.790;9.210;2022-07-24T06:23:47;17.43;;;13.10;;
6414;SDS011;3240;48.790;9.210;2022-07-24T06:26:15;21.90;;;12.80;;
6414;SDS011;3240;48.790;9.210;2022-07-24T06:28:44;14.43;;;11.80;;
6414;SDS011;3240;48.790;9.210;2022-07-24T06:31:12;15.23;;;12.20;;
6414;SDS011;3240;48.790;9.210;2022-07-24T06:33:40;12.63;;;11.33;;
6414;SDS011;3240;48.790;9.210;2022-07-24T06:36:09;15.33;;;12.80;;
6414;SDS011;3240;48.790;9.210;2022-07-24T06:38:37;16.63;;;13.00;;
6414;SDS011;3240;48.790;9.210;2022-07-24T06:41:05;13.63;;;11.93;;
6414;SDS011;3240;48.790;9.210;2022-07-24T06:43:34;18.17;;;12.50;;
6414;SDS011;3240;48.790;9.210;2022-07-24T06:46:02;15.03;;;12.27;;
6414;SDS011;3240;48.790;9.210;2022-07-24T06:48:30;15.97;;;12.60;;
6414;SDS011;3240;48.790;9.210;2022-07-24T06:50:59;17.10;;;11.60;;
6414;SDS011;3240;48.790;9.210;2022-07-24T06:53:27;13.93;;;11.20;;
6414;SDS011;3240;48.790;9.210;2022-07-24T06:55:55;15.60;;;12.37;;
6414;SDS011;3240;48.790;9.210;2022-07-24T06:58:24;16.47;;;12.20;;
6414;SDS011;3240;48.790;9.210;2022-07-24T07:00:52;14.93;;;12.50;;
6414;SDS011;3240;48.790;9.210;2022-07-24T07:03:20;13.53;;;12.00;;
6414;SDS011;3240;48.790;9.210;2022-07-24T07:05:49;16.53;;;12.30;;
6414;SDS011;3240;48.790;9.210;2022-07-24T07:08:17;16.77;;;12.77;;
6414;SDS011;3240;48.790;9.210;2022-07-24T07:10:45;13.67;;;11.27;;
6414;SDS011;3240;48.790;9.210;2022-07-24T07:13:14;14.43;;;11.70;;
6414;SDS011;3240;48.790;9.210;2022-07-24T07:15:42;14.70;;;11.37;;
6414;SDS011;3240;48.790;9.210;2022-07-24T07:18:10;17.53;;;12.13;;
6414;SDS011;3240;48.790;9.210;2022-07-24T07:20:39;11.87;;;9.67;;
6414;SDS011;3240;48.790;9.210;2022-07-24T07:23:07;12.40;;;10.93;;
6414;SDS011;3240;48.790;9.210;2022-07-24T07:25:35;13.87;;;11.00;;
6414;SDS011;3240;48.790;9.210;2022-07-24T07:28:04;12.07;;;9.77;;
6414;SDS011;3240;48.790;9.210;2022-07-24T07:30:32;12.20;;;9.80;;
6414;SDS011;3240;48.790;9.210;2022-07-24T07:33:00;10.60;;;8.90;;
6414;SDS011;3240;48.790;9.210;2022-07-24T07:35:29;10.57;;;9.47;;
6414;SDS011;3240;48.790;9.210;2022-07-24T07:37:57;11.03;;;9.03;;
6414;SDS011;3240;48.790;9.210;2022-07-24T07:40:25;9.07;;;7.47;;
6414;SDS011;3240;48.790;9.210;2022-07-24T07:42:54;9.47;;;8.47;;
6414;SDS011;3240;48.790;9.210;2022-07-24T07:45:22;11.57;;;9.07;;
6414;SDS011;3240;48.790;9.210;2022-07-24T07:47:50;11.37;;;8.00;;
6414;SDS011;3240;48.790;9.210;2022-07-24T07:50:19;11.97;;;9.70;;
6414;SDS011;3240;48.790;9.210;2022-07-24T07:52:47;10.40;;;8.67;;
6414;SDS011;3240;48.790;9.210;2022-07-24T07:55:15;10.97;;;7.80;;
6414;SDS011;3240;48.790;9.210;2022-07-24T07:57:44;10.90;;;9.00;;
6414;SDS011;3240;48.790;9.210;2022-07-24T08:00:12;9.80;;;7.80;;
6414;SDS011;3240;48.790;9.210;2022-07-24T08:02:40;9.83;;;7.30;;
6414;SDS011;3240;48.790;9.210;2022-07-24T08:05:09;8.77;;;7.97;;
6414;SDS011;3240;48.790;9.210;2022-07-24T08:07:37;9.53;;;8.03;;
6414;SDS011;3240;48.790;9.210;2022-07-24T08:10:06;8.40;;;7.60;;
6414;SDS011;3240;48.790;9.210;2022-07-24T08:12:34;8.98;;;8.07;;
6414;SDS011;3240;48.790;9.210;2022-07-24T08:15:02;9.33;;;8.00;;
6414;SDS011;3240;48.790;9.210;2022-07-24T08:17:31;8.03;;;7.20;;
6414;SDS011;3240;48.790;9.210;2022-07-24T08:19:59;10.77;;;7.77;;
6414;SDS011;3240;48.790;9.210;2022-07-24T08:22:28;8.67;;;7.73;;
6414;SDS011;3240;48.790;9.210;2022-07-24T08:24:56;9.20;;;8.27;;
6414;SDS011;3240;48.790;9.210;2022-07-24T08:27:24;10.43;;;7.87;;
6414;SDS011;3240;48.790;9.210;2022-07-24T08:29:53;10.90;;;7.60;;
6414;SDS011;3240;48.790;9.210;2022-07-24T08:32:21;8.77;;;7.60;;
6414;SDS011;3240;48.790;9.210;2022-07-24T08:34:49;12.47;;;7.87;;
6414;SDS011;3240;48.790;9.210;2022-07-24T08:37:19;8.53;;;7.57;;
6414;SDS011;3240;48.790;9.210;2022-07-24T08:39:47;9.13;;;7.03;;
6414;SDS011;3240;48.790;9.210;2022-07-24T08:42:15;8.60;;;7.33;;
6414;SDS011;3240;48.790;9.210;2022-07-24T08:44:43;7.13;;;6.43;;
6414;SDS011;3240;48.790;9.210;2022-07-24T08:47:12;8.03;;;7.23;;
6414;SDS011;3240;48.790;9.210;2022-07-24T08:49:40;8.53;;;7.73;;
6414;SDS011;3240;48.790;9.210;2022-07-24T08:52:08;8.67;;;7.43;;
6414;SDS011;3240;48.790;9.210;2022-07-24T08:54:37;7.17;;;6.53;;
6414;SDS011;3240;48.790;9.210;2022-07-24T08:57:05;9.98;;;8.30;;
6414;SDS011;3240;48.790;9.210;2022-07-24T08:59:33;7.77;;;7.03;;
6414;SDS011;3240;48.790;9.210;2022-07-24T09:02:02;7.73;;;6.97;;
6414;SDS011;3240;48.790;9.210;2022-07-24T09:04:31;10.33;;;7.10;;
6414;SDS011;3240;48.790;9.210;2022-07-24T09:06:58;8.00;;;6.70;;
6414;SDS011;3240;48.790;9.210;2022-07-24T09:09:27;8.80;;;7.07;;
6414;SDS011;3240;48.790;9.210;2022-07-24T09:12:02;8.63;;;7.40;;
6414;SDS011;3240;48.790;9.210;2022-07-24T09:14:31;8.00;;;7.30;;
6414;SDS011;3240;48.790;9.210;2022-07-24T09:17:04;8.60;;;7.07;;
6414;SDS011;3240;48.790;9.210;2022-07-24T09:19:37;7.87;;;7.07;;
6414;SDS011;3240;48.790;9.210;2022-07-24T09:22:00;7.33;;;6.50;;
6414;SDS011;3240;48.790;9.210;2022-07-24T09:24:28;11.05;;;7.80;;
6414;SDS011;3240;48.790;9.210;2022-07-24T09:26:56;7.60;;;6.90;;
6414;SDS011;3240;48.790;9.210;2022-07-24T09:29:25;10.90;;;8.07;;
6414;SDS011;3240;48.790;9.210;2022-07-24T09:31:54;7.13;;;6.43;;
6414;SDS011;3240;48.790;9.210;2022-07-24T09:34:22;8.63;;;7.43;;
6414;SDS011;3240;48.790;9.210;2022-07-24T09:39:38;8.87;;;7.50;;
6414;SDS011;3240;48.790;9.210;2022-07-24T09:42:06;8.40;;;7.40;;
6414;SDS011;3240;48.790;9.210;2022-07-24T09:44:35;7.60;;;6.80;;
6414;SDS011;3240;48.790;9.210;2022-07-24T09:47:06;9.73;;;7.60;;
6414;SDS011;3240;48.790;9.210;2022-07-24T09:49:34;9.17;;;7.93;;
6414;SDS011;3240;48.790;9.210;2022-07-24T09:52:09;8.70;;;7.63;;
6414;SDS011;3240;48.790;9.210;2022-07-24T09:54:37;7.70;;;6.90;;
6414;SDS011;3240;48.790;9.210;2022-07-24T09:59:38;8.70;;;7.90;;
6414;SDS011;3240;48.790;9.210;2022-07-24T10:02:07;10.70;;;7.40;;
6414;SDS011;3240;48.790;9.210;2022-07-24T10:04:35;10.30;;;6.80;;
6414;SDS011;3240;48.790;9.210;2022-07-24T10:07:03;7.40;;;6.50;;
6414;SDS011;3240;48.790;9.210;2022-07-24T10:09:32;11.13;;;7.30;;
6414;SDS011;3240;48.790;9.210;2022-07-24T10:12:00;8.87;;;8.07;;
6414;SDS011;3240;48.790;9.210;2022-07-24T10:14:29;8.80;;;7.90;;
6414;SDS011;3240;48.790;9.210;2022-07-24T10:17:04;7.50;;;6.63;;
6414;SDS011;3240;48.790;9.210;2022-07-24T10:19:26;8.80;;;7.57;;
6414;SDS011;3240;48.790;9.210;2022-07-24T10:21:54;8.33;;;7.43;;
6414;SDS011;3240;48.790;9.210;2022-07-24T10:24:37;8.77;;;6.83;;
6414;SDS011;3240;48.790;9.210;2022-07-24T10:27:03;9.40;;;7.57;;
6414;SDS011;3240;48.790;9.210;2022-07-24T10:29:33;8.10;;;7.30;;
6414;SDS011;3240;48.790;9.210;2022-07-24T10:31:59;9.50;;;8.03;;
6414;SDS011;3240;48.790;9.210;2022-07-24T10:34:32;7.97;;;7.10;;
6414;SDS011;3240;48.790;9.210;2022-07-24T10:37:09;10.60;;;7.00;;
6414;SDS011;3240;48.790;9.210;2022-07-24T10:39:47;7.67;;;6.87;;
6414;SDS011;3240;48.790;9.210;2022-07-24T10:42:11;8.63;;;7.83;;
6414;SDS011;3240;48.790;9.210;2022-07-24T10:44:39;9.13;;;8.23;;
6414;SDS011;3240;48.790;9.210;2022-07-24T10:47:08;8.30;;;7.50;;
6414;SDS011;3240;48.790;9.210;2022-07-24T10:49:42;14.37;;;8.60;;
6414;SDS011;3240;48.790;9.210;2022-07-24T10:52:11;8.67;;;7.10;;
6414;SDS011;3240;48.790;9.210;2022-07-24T10:54:39;7.60;;;6.90;;
6414;SDS011;3240;48.790;9.210;2022-07-24T10:57:07;10.50;;;8.27;;
6414;SDS011;3240;48.790;9.210;2022-07-24T10:59:36;7.43;;;6.73;;
6414;SDS011;3240;48.790;9.210;2022-07-24T11:04:38;7.70;;;6.90;;
6414;SDS011;3240;48.790;9.210;2022-07-24T11:07:10;12.57;;;6.80;;
6414;SDS011;3240;48.790;9.210;2022-07-24T11:12:11;8.93;;;7.00;;
6414;SDS011;3240;48.790;9.210;2022-07-24T11:14:47;10.27;;;7.00;;
6414;SDS011;3240;48.790;9.210;2022-07-24T11:19:49;8.00;;;7.20;;
6414;SDS011;3240;48.790;9.210;2022-07-24T11:22:18;9.70;;;7.70;;
6414;SDS011;3240;48.790;9.210;2022-07-24T11:25:04;11.20;;;7.47;;
6414;SDS011;3240;48.790;9.210;2022-07-24T11:27:16;8.87;;;7.97;;
6414;SDS011;3240;48.790;9.210;2022-07-24T11:29:43;8.97;;;8.07;;
6414;SDS011;3240;48.790;9.210;2022-07-24T11:32:12;10.43;;;7.40;;
6414;SDS011;3240;48.790;9.210;2022-07-24T11:34:43;8.90;;;6.93;;
6414;SDS011;3240;48.790;9.210;2022-07-24T11:37:08;7.80;;;6.70;;
6414;SDS011;3240;48.790;9.210;2022-07-24T11:39:37;8.67;;;6.83;;
6414;SDS011;3240;48.790;9.210;2022-07-24T11:42:05;7.73;;;6.93;;
6414;SDS011;3240;48.790;9.210;2022-07-24T11:44:37;10.13;;;7.13;;
6414;SDS011;3240;48.790;9.210;2022-07-24T11:47:06;8.07;;;6.70;;
6414;SDS011;3240;48.790;9.210;2022-07-24T11:49:38;9.43;;;7.50;;
6414;SDS011;3240;48.790;9.210;2022-07-24T11:52:05;9.40;;;7.73;;
6414;SDS011;3240;48.790;9.210;2022-07-24T11:54:34;7.00;;;6.20;;
6414;SDS011;3240;48.790;9.210;2022-07-24T11:57:02;7.17;;;6.30;;
6414;SDS011;3240;48.790;9.210;2022-07-24T11:59:31;7.23;;;6.53;;
6414;SDS011;3240;48.790;9.210;2022-07-24T12:02:02;7.00;;;6.40;;
6414;SDS011;3240;48.790;9.210;2022-07-24T12:04:30;9.23;;;7.00;;
6414;SDS011;3240;48.790;9.210;2022-07-24T12:06:58;10.10;;;7.00;;
6414;SDS011;3240;48.790;9.210;2022-07-24T12:09:26;7.17;;;6.50;;
6414;SDS011;3240;48.790;9.210;2022-07-24T12:11:55;7.50;;;6.27;;
6414;SDS011;3240;48.790;9.210;2022-07-24T12:14:23;8.17;;;6.70;;
6414;SDS011;3240;48.790;9.210;2022-07-24T12:16:52;13.13;;;7.37;;
6414;SDS011;3240;48.790;9.210;2022-07-24T12:19:22;8.27;;;6.67;;
6414;SDS011;3240;48.790;9.210;2022-07-24T12:21:50;7.63;;;6.30;;
6414;SDS011;3240;48.790;9.210;2022-07-24T12:24:18;9.10;;;7.60;;
6414;SDS011;3240;48.790;9.210;2022-07-24T12:26:49;8.53;;;7.07;;
6414;SDS011;3240;48.790;9.210;2022-07-24T12:29:17;8.03;;;7.23;;
6414;SDS011;3240;48.790;9.210;2022-07-24T12:31:46;8.10;;;7.30;;
6414;SDS011;3240;48.790;9.210;2022-07-24T12:34:14;7.47;;;6.77;;
6414;SDS011;3240;48.790;9.210;2022-07-24T12:36:42;7.20;;;6.50;;
6414;SDS011;3240;48.790;9.210;2022-07-24T12:39:11;7.50;;;6.80;;
6414;SDS011;3240;48.790;9.210;2022-07-24T12:41:42;6.50;;;5.90;;
6414;SDS011;3240;48.790;9.210;2022-07-24T12:44:09;7.80;;;6.70;;
6414;SDS011;3240;48.790;9.210;2022-07-24T12:46:39;7.20;;;6.50;;
6414;SDS011;3240;48.790;9.210;2022-07-24T12:49:12;7.67;;;6.30;;
6414;SDS011;3240;48.790;9.210;2022-07-24T12:51:43;7.40;;;6.70;;
6414;SDS011;3240;48.790;9.210;2022-07-24T12:54:23;7.20;;;6.47;;
6414;SDS011;3240;48.790;9.210;2022-07-24T12:56:53;10.07;;;7.40;;
6414;SDS011;3240;48.790;9.210;2022-07-24T12:59:21;7.60;;;6.37;;
6414;SDS011;3240;48.790;9.210;2022-07-24T13:01:50;7.50;;;6.50;;
6414;SDS011;3240;48.790;9.210;2022-07-24T13:04:18;6.80;;;6.20;;
6414;SDS011;3240;48.790;9.210;2022-07-24T13:06:46;7.17;;;6.47;;
6414;SDS011;3240;48.790;9.210;2022-07-24T13:09:14;7.03;;;6.03;;
6414;SDS011;3240;48.790;9.210;2022-07-24T13:11:43;7.60;;;6.80;;
6414;SDS011;3240;48.790;9.210;2022-07-24T13:14:11;7.17;;;6.47;;
6414;SDS011;3240;48.790;9.210;2022-07-24T13:16:41;7.60;;;6.50;;
6414;SDS011;3240;48.790;9.210;2022-07-24T13:19:07;7.40;;;6.70;;
6414;SDS011;3240;48.790;9.210;2022-07-24T13:21:36;8.07;;;6.97;;
6414;SDS011;3240;48.790;9.210;2022-07-24T13:24:04;7.27;;;6.57;;
6414;SDS011;3240;48.790;9.210;2022-07-24T13:26:32;7.33;;;6.63;;
6414;SDS011;3240;48.790;9.210;2022-07-24T13:29:01;9.80;;;6.97;;
6414;SDS011;3240;48.790;9.210;2022-07-24T13:31:29;9.23;;;6.73;;
6414;SDS011;3240;48.790;9.210;2022-07-24T13:33:57;8.10;;;7.30;;
6414;SDS011;3240;48.790;9.210;2022-07-24T13:36:26;8.00;;;7.20;;
6414;SDS011;3240;48.790;9.210;2022-07-24T13:38:54;9.40;;;6.03;;
6414;SDS011;3240;48.790;9.210;2022-07-24T13:41:22;6.70;;;6.10;;
6414;SDS011;3240;48.790;9.210;2022-07-24T13:43:52;7.57;;;6.87;;
6414;SDS011;3240;48.790;9.210;2022-07-24T13:46:19;7.10;;;6.50;;
6414;SDS011;3240;48.790;9.210;2022-07-24T13:48:47;6.90;;;6.07;;
6414;SDS011;3240;48.790;9.210;2022-07-24T13:51:16;7.30;;;6.60;;
6414;SDS011;3240;48.790;9.210;2022-07-24T13:53:44;7.83;;;6.60;;
6414;SDS011;3240;48.790;9.210;2022-07-24T13:56:12;7.90;;;7.03;;
6414;SDS011;3240;48.790;9.210;2022-07-24T13:58:41;7.40;;;6.70;;
6414;SDS011;3240;48.790;9.210;2022-07-24T14:01:09;7.00;;;6.40;;
6414;SDS011;3240;48.790;9.210;2022-07-24T14:03:37;7.30;;;6.60;;
6414;SDS011;3240;48.790;9.210;2022-07-24T14:06:06;7.63;;;7.03;;
6414;SDS011;3240;48.790;9.210;2022-07-24T14:08:34;7.83;;;6.80;;
6414;SDS011;3240;48.790;9.210;2022-07-24T14:11:02;6.95;;;6.22;;
6414;SDS011;3240;48.790;9.210;2022-07-24T14:13:31;7.80;;;7.00;;
6414;SDS011;3240;48.790;9.210;2022-07-24T14:15:59;7.03;;;6.33;;
6414;SDS011;3240;48.790;9.210;2022-07-24T14:18:27;7.47;;;6.67;;
6414;SDS011;3240;48.790;9.210;2022-07-24T14:20:56;9.87;;;7.00;;
6414;SDS011;3240;48.790;9.210;2022-07-24T14:23:24;7.80;;;7.10;;
6414;SDS011;3240;48.790;9.210;2022-07-24T14:25:52;6.50;;;6.00;;
6414;SDS011;3240;48.790;9.210;2022-07-24T14:28:21;6.90;;;6.27;;
6414;SDS011;3240;48.790;9.210;2022-07-24T14:30:49;8.07;;;6.63;;
6414;SDS011;3240;48.790;9.210;2022-07-24T14:33:17;6.23;;;5.80;;
6414;SDS011;3240;48.790;9.210;2022-07-24T14:35:46;7.70;;;7.00;;
6414;SDS011;3240;48.790;9.210;2022-07-24T14:38:14;7.33;;;6.73;;
6414;SDS011;3240;48.790;9.210;2022-07-24T14:40:42;7.40;;;6.70;;
6414;SDS011;3240;48.790;9.210;2022-07-24T14:43:11;8.83;;;6.80;;
6414;SDS011;3240;48.790;9.210;2022-07-24T14:45:40;8.20;;;7.37;;
6414;SDS011;3240;48.790;9.210;2022-07-24T14:48:08;7.80;;;6.30;;
6414;SDS011;3240;48.790;9.210;2022-07-24T14:50:36;6.80;;;6.10;;
6414;SDS011;3240;48.790;9.210;2022-07-24T14:53:05;7.83;;;6.80;;
6414;SDS011;3240;48.790;9.210;2022-07-24T14:55:33;7.90;;;7.10;;
6414;SDS011;3240;48.790;9.210;2022-07-24T14:58:01;8.10;;;6.70;;
6414;SDS011;3240;48.790;9.210;2022-07-24T15:00:30;6.30;;;5.80;;
6414;SDS011;3240;48.790;9.210;2022-07-24T15:02:58;7.63;;;7.03;;
6414;SDS011;3240;48.790;9.210;2022-07-24T15:05:26;7.20;;;6.60;;
6414;SDS011;3240;48.790;9.210;2022-07-24T15:07:55;7.20;;;6.60;;
6414;SDS011;3240;48.790;9.210;2022-07-24T15:10:23;7.60;;;6.70;;
6414;SDS011;3240;48.790;9.210;2022-07-24T15:12:51;7.20;;;6.50;;
6414;SDS011;3240;48.790;9.210;2022-07-24T15:15:20;7.57;;;6.60;;
6414;SDS011;3240;48.790;9.210;2022-07-24T15:17:48;8.90;;;7.13;;
6414;SDS011;3240;48.790;9.210;2022-07-24T15:20:16;7.00;;;6.40;;